createdAt,value
2019-03-10T00:07:01.969Z,43.50
2019-03-10T00:34:07.782Z,43.80
2019-03-10T00:47:30.567Z,44.10
2019-03-10T01:00:53.386Z,44.30
2019-03-10T01:14:16.201Z,44.40
2019-03-10T01:27:39.000Z,44.60
2019-03-10T01:41:01.814Z,44.70
2019-03-10T01:54:24.704Z,44.80
2019-03-10T02:07:47.517Z,45.00
2019-03-10T02:21:10.264Z,45.10
2019-03-10T02:34:33.102Z,45.20
2019-03-10T02:47:55.894Z,45.90
2019-03-10T03:14:20.410Z,45.50
2019-03-10T03:27:27.708Z,45.60
2019-03-10T03:40:34.998Z,45.70
2019-03-10T03:53:42.333Z,45.70
2019-03-10T04:06:49.612Z,45.80
2019-03-10T04:20:13.708Z,45.90
2019-03-10T04:33:36.493Z,46.00
2019-03-10T04:46:59.344Z,46.00
2019-03-10T05:00:22.159Z,46.10
2019-03-10T05:13:44.954Z,46.10
2019-03-10T05:27:07.780Z,46.20
2019-03-10T05:40:30.591Z,46.30
2019-03-10T05:53:53.396Z,46.40
2019-03-10T06:07:16.272Z,46.40
2019-03-10T06:20:39.081Z,46.70
2019-03-10T06:34:01.856Z,46.80
2019-03-10T06:47:24.683Z,46.90
2019-03-10T07:00:47.498Z,46.30
2019-03-10T07:14:10.325Z,42.60
2019-03-10T07:27:33.109Z,42.00
2019-03-10T07:40:55.941Z,40.70
2019-03-10T07:54:18.766Z,41.10
2019-03-10T08:07:41.598Z,41.90
2019-03-10T08:21:04.377Z,42.20
2019-03-10T08:47:28.871Z,42.20
2019-03-10T09:13:41.713Z,42.80
2019-03-10T09:26:49.036Z,42.70
2019-03-10T09:39:56.343Z,43.00
2019-03-10T09:53:03.642Z,43.20
2019-03-10T10:06:10.936Z,43.50
2019-03-10T10:19:35.050Z,44.20
2019-03-10T10:32:57.946Z,43.70
2019-03-10T10:46:20.713Z,43.80
2019-03-10T10:59:43.493Z,44.10
2019-03-10T11:26:41.822Z,44.50
2019-03-10T11:39:49.136Z,44.80
2019-03-10T11:52:56.504Z,45.20
2019-03-10T12:06:04.550Z,45.70
2019-03-10T12:32:29.325Z,45.80
2019-03-10T12:45:36.659Z,45.70
2019-03-10T12:58:44.058Z,45.80
2019-03-10T13:11:51.537Z,46.10
2019-03-10T13:24:58.944Z,46.10
2019-03-10T13:51:24.326Z,46.10
2019-03-10T14:04:31.696Z,46.00
2019-03-10T14:17:39.063Z,44.90
2019-03-10T14:30:46.402Z,45.50
2019-03-10T14:43:53.869Z,45.60
2019-03-10T14:57:17.581Z,45.60
2019-03-10T15:10:40.422Z,45.60
2019-03-10T15:24:03.306Z,45.50
2019-03-10T15:37:26.026Z,45.70
2019-03-10T15:50:48.859Z,45.30
2019-03-10T16:04:11.671Z,45.60
2019-03-10T16:30:36.664Z,46.20
2019-03-10T16:43:44.038Z,46.10
2019-03-10T16:56:51.455Z,46.50
2019-03-10T17:09:58.833Z,46.70
2019-03-10T17:23:22.999Z,46.00
2019-03-10T17:36:45.867Z,40.70
2019-03-10T18:03:10.456Z,39.30
2019-03-10T18:16:17.827Z,40.50
2019-03-10T18:29:25.362Z,41.10
2019-03-10T18:42:32.752Z,41.60
2019-03-10T18:55:40.206Z,41.90
2019-03-10T19:09:03.628Z,40.60
2019-03-10T19:22:26.450Z,41.50
2019-03-10T19:35:49.237Z,42.00
2019-03-10T19:49:12.062Z,42.40
2019-03-10T20:15:36.633Z,42.80
2019-03-10T20:28:43.954Z,43.10
2019-03-10T20:41:51.308Z,43.20
2019-03-10T20:54:58.710Z,43.40
2019-03-10T21:08:06.041Z,44.10
2019-03-10T21:21:29.950Z,43.60
2019-03-10T21:34:52.665Z,43.70
2019-03-10T21:48:15.497Z,43.90
2019-03-10T22:02:43.936Z,44.00
2019-03-10T22:16:06.660Z,44.30
2019-03-10T22:29:29.483Z,45.00
2019-03-10T22:42:52.325Z,44.40
2019-03-10T22:56:15.120Z,44.10
2019-03-10T23:09:37.952Z,44.30
2019-03-10T23:23:00.763Z,44.40
2019-03-10T23:36:23.563Z,44.60
2019-03-10T23:49:46.383Z,44.70
